createdAt,value
2022-12-24T00:01:48.956Z,996.3033
2022-12-24T00:06:51.456Z,996.2902
2022-12-24T00:11:54.160Z,996.3444
2022-12-24T00:16:56.875Z,996.1859
2022-12-24T00:21:59.541Z,996.1021
2022-12-24T00:27:02.276Z,996.21
2022-12-24T00:32:04.784Z,996.2808
2022-12-24T00:37:07.355Z,996.3604
2022-12-24T00:42:09.977Z,996.2617
2022-12-24T00:47:12.487Z,996.3141
2022-12-24T00:52:15.686Z,996.3613
2022-12-24T00:57:18.277Z,996.4719
2022-12-24T01:02:20.997Z,996.5023
2022-12-24T01:07:23.420Z,996.5556
2022-12-24T01:12:25.990Z,996.6142
2022-12-24T01:17:28.691Z,996.6766
2022-12-24T01:22:31.273Z,996.7661
2022-12-24T01:27:33.673Z,996.7537
2022-12-24T01:32:36.074Z,996.7516
2022-12-24T01:37:38.687Z,996.7123
2022-12-24T01:42:41.436Z,996.7007
2022-12-24T01:47:44.299Z,996.8683
2022-12-24T01:52:46.854Z,996.9314
2022-12-24T01:57:49.357Z,996.9498
2022-12-24T02:02:57.401Z,997.0056
2022-12-24T02:08:00.214Z,997.13
2022-12-24T02:13:02.674Z,997.2288
2022-12-24T02:18:05.115Z,997.2853
2022-12-24T02:23:07.747Z,997.3275
2022-12-24T02:28:10.344Z,997.4455
2022-12-24T02:33:13.037Z,997.5379
2022-12-24T02:38:15.912Z,997.6028
2022-12-24T02:43:18.553Z,997.6025
2022-12-24T02:48:21.222Z,997.6928
2022-12-24T02:53:23.858Z,997.7545
2022-12-24T02:58:26.514Z,997.869
2022-12-24T03:03:29.357Z,997.7906
2022-12-24T03:08:32.040Z,997.8339
2022-12-24T03:13:34.555Z,997.8755
2022-12-24T03:18:37.128Z,997.8901
2022-12-24T03:23:39.816Z,997.9093
2022-12-24T03:28:42.524Z,998.0542
2022-12-24T03:33:45.119Z,998.1234
2022-12-24T03:38:47.682Z,998.2328
2022-12-24T03:43:54.386Z,998.3103
2022-12-24T03:48:57.213Z,998.3784
2022-12-24T03:53:59.929Z,998.3817
2022-12-24T03:59:02.488Z,998.4152
2022-12-24T04:04:05.167Z,998.5237
2022-12-24T04:09:07.705Z,998.4551
2022-12-24T04:14:10.579Z,998.3843
2022-12-24T04:19:13.386Z,998.5061
2022-12-24T04:24:16.028Z,998.6089
2022-12-24T04:29:18.680Z,998.6944
2022-12-24T04:34:24.323Z,998.8065
2022-12-24T04:39:27.073Z,998.8686
2022-12-24T04:44:44.804Z,999.019
2022-12-24T04:49:47.517Z,999.0184
2022-12-24T04:54:50.347Z,999.0273
2022-12-24T04:59:53.070Z,999.0223
2022-12-24T05:04:55.514Z,999.0754
2022-12-24T05:15:00.711Z,999.0767
2022-12-24T05:20:03.109Z,999.115
2022-12-24T05:25:08.560Z,999.0502
2022-12-24T05:30:11.431Z,999.1454
2022-12-24T05:40:59.134Z,999.1473
2022-12-24T05:46:01.760Z,999.2508
2022-12-24T05:51:04.284Z,999.2758
2022-12-24T05:56:06.762Z,999.4125
2022-12-24T06:01:12.525Z,999.512
2022-12-24T06:06:15.351Z,999.508
2022-12-24T06:11:17.987Z,999.5754
2022-12-24T06:16:20.864Z,999.7555
2022-12-24T06:21:23.386Z,999.8196
2022-12-24T06:26:25.790Z,999.7892
2022-12-24T06:31:31.436Z,999.7713
2022-12-24T06:36:34.125Z,999.8306
2022-12-24T06:41:36.803Z,999.8412
2022-12-24T06:46:39.911Z,999.8734
2022-12-24T06:51:42.501Z,999.9737
2022-12-24T06:56:45.118Z,1000.153
2022-12-24T07:01:47.703Z,1000.222
2022-12-24T07:11:52.976Z,1000.327
2022-12-24T07:16:59.084Z,1000.429
2022-12-24T07:21:58.217Z,1000.601
2022-12-24T07:27:01.107Z,1000.69
2022-12-24T07:32:03.766Z,1000.699
2022-12-24T07:37:06.391Z,1000.716
2022-12-24T07:42:08.983Z,1000.709
2022-12-24T07:47:11.811Z,1000.848
2022-12-24T07:52:14.361Z,1000.845
2022-12-24T07:57:16.914Z,1000.882
2022-12-24T08:02:19.963Z,1000.954
2022-12-24T08:07:22.492Z,1000.945
2022-12-24T08:12:28.043Z,1000.896
2022-12-24T08:17:32.458Z,1000.959
2022-12-24T08:22:33.005Z,1000.95
2022-12-24T08:27:38.480Z,1001.07
2022-12-24T08:32:40.911Z,1001.145
2022-12-24T08:37:43.764Z,1001.208
2022-12-24T08:42:49.159Z,1001.274
2022-12-24T08:47:51.736Z,1001.308
2022-12-24T08:58:02.497Z,1001.391
2022-12-24T09:03:05.221Z,1001.408
2022-12-24T09:08:07.983Z,1001.41
2022-12-24T09:13:10.857Z,1001.628
2022-12-24T09:18:13.333Z,1001.646
2022-12-24T09:23:15.850Z,1001.803
2022-12-24T09:28:18.450Z,1001.843
2022-12-24T09:33:21.248Z,1001.99
2022-12-24T09:38:23.952Z,1002.107
2022-12-24T09:43:26.710Z,1002.172
2022-12-24T15:35:20.841Z,1005.81
2022-12-24T15:40:21.806Z,1005.802
2022-12-24T15:45:27.960Z,1005.904
2022-12-24T15:50:30.576Z,1005.97
2022-12-24T15:55:33.464Z,1006.009
2022-12-24T16:00:36.779Z,1005.996
2022-12-24T16:05:39.485Z,1006.077
2022-12-24T16:10:42.538Z,1006.118
2022-12-24T16:15:45.588Z,1006.241
2022-12-24T16:20:50.516Z,1006.339
2022-12-24T16:25:53.693Z,1006.35
2022-12-24T16:30:59.295Z,1006.328
2022-12-24T16:36:02.488Z,1006.436
2022-12-24T16:41:05.828Z,1006.495
2022-12-24T16:46:09.127Z,1006.421
2022-12-24T16:51:12.311Z,1006.504
2022-12-24T16:56:15.638Z,1006.536
2022-12-24T17:01:19.143Z,1006.569
2022-12-24T17:06:22.410Z,1006.568
2022-12-24T17:11:25.637Z,1006.596
2022-12-24T17:16:28.970Z,1006.773
2022-12-24T17:21:32.473Z,1006.836
2022-12-24T17:26:35.957Z,1006.9
2022-12-24T17:31:41.552Z,1006.952
2022-12-24T17:36:44.923Z,1007.009
2022-12-24T17:41:48.347Z,1007.049
2022-12-24T17:46:51.959Z,1007.055
2022-12-24T17:51:55.222Z,1007.106
2022-12-24T17:56:58.592Z,1007.201
2022-12-24T18:02:04.705Z,1007.237
2022-12-24T18:07:07.822Z,1007.26
2022-12-24T18:12:10.854Z,1007.369
2022-12-24T18:17:14.193Z,1007.371
2022-12-24T18:22:20.635Z,1007.419
2022-12-24T18:27:24.216Z,1007.517
2022-12-24T18:32:27.320Z,1007.484
2022-12-24T18:37:30.733Z,1007.601
2022-12-24T18:42:33.917Z,1007.701
2022-12-24T18:52:43.050Z,1007.698
2022-12-24T18:57:46.095Z,1007.717
2022-12-24T19:02:49.303Z,1007.828
2022-12-24T19:07:56.024Z,1007.804
2022-12-24T19:12:59.222Z,1007.883
2022-12-24T19:23:05.887Z,1007.882
2022-12-24T19:28:09.263Z,1007.862
2022-12-24T19:33:12.431Z,1007.908
2022-12-24T19:38:15.749Z,1007.922
2022-12-24T19:43:18.983Z,1008.089
2022-12-24T19:48:22.194Z,1008.1
2022-12-24T19:53:28.170Z,1008.159
2022-12-24T19:58:31.392Z,1008.189
2022-12-24T20:03:34.626Z,1008.149
2022-12-24T20:08:37.932Z,1008.095
2022-12-24T20:13:41.122Z,1008.136
2022-12-24T20:18:44.649Z,1008.194
2022-12-24T20:23:48.021Z,1008.264
2022-12-24T20:28:51.126Z,1008.235
2022-12-24T20:33:54.366Z,1008.28
2022-12-24T20:38:59.940Z,1008.287
2022-12-24T20:44:02.769Z,1008.265
2022-12-24T20:54:11.504Z,1008.522
2022-12-24T20:59:14.235Z,1008.543
2022-12-24T21:04:16.845Z,1008.559
2022-12-24T21:09:19.722Z,1008.58
2022-12-24T21:19:25.862Z,1008.627
2022-12-24T21:29:31.485Z,1008.768
2022-12-24T21:34:33.908Z,1008.767
2022-12-24T21:39:36.802Z,1008.862
2022-12-24T21:45:19.470Z,1008.958
2022-12-24T21:50:24.637Z,1008.989
2022-12-24T21:55:24.898Z,1009.061
2022-12-24T22:00:27.524Z,1009.104
2022-12-24T22:05:30.307Z,1009.248
2022-12-24T22:10:33.043Z,1009.324
2022-12-24T22:15:36.291Z,1009.344
2022-12-24T22:20:38.936Z,1009.339
2022-12-24T22:25:41.222Z,1009.383
2022-12-24T22:30:43.902Z,1009.38
2022-12-24T22:35:46.640Z,1009.412
2022-12-24T22:40:51.067Z,1009.566
2022-12-24T22:45:53.912Z,1009.615
2022-12-24T22:50:56.524Z,1009.637
2022-12-24T22:55:59.058Z,1009.756
2022-12-24T23:01:01.670Z,1009.825
2022-12-24T23:06:04.349Z,1009.942
2022-12-24T23:11:07.094Z,1009.915
2022-12-24T23:16:10.022Z,1009.921
2022-12-24T23:21:12.585Z,1009.943
2022-12-24T23:26:15.764Z,1009.92
2022-12-24T23:31:18.492Z,1009.946
2022-12-24T23:36:21.081Z,1009.94
2022-12-24T23:41:23.647Z,1009.88
2022-12-24T23:46:26.403Z,1009.846
2022-12-24T23:51:29.581Z,1009.894
2022-12-24T23:56:32.231Z,1009.834
